createdAt,value
2019-03-26T00:04:08.498Z,6.90
2019-03-26T00:09:00.886Z,6.80
2019-03-26T00:13:53.337Z,6.80
2019-03-26T00:18:45.685Z,6.90
2019-03-26T00:23:38.393Z,6.80
2019-03-26T00:28:31.013Z,6.80
2019-03-26T00:33:35.849Z,6.70
2019-03-26T00:38:17.548Z,6.80
2019-03-26T00:43:10.270Z,6.90
2019-03-26T00:48:02.746Z,6.90
2019-03-26T00:52:55.129Z,6.90
2019-03-26T00:57:47.470Z,6.80
2019-03-26T01:02:40.169Z,6.80
2019-03-26T01:07:32.465Z,6.90
2019-03-26T01:12:24.851Z,6.90
2019-03-26T01:17:17.565Z,6.90
2019-03-26T01:22:10.233Z,6.90
2019-03-26T01:27:02.607Z,7.00
2019-03-26T01:31:55.513Z,6.90
2019-03-26T01:36:48.157Z,6.90
2019-03-26T01:41:40.165Z,6.80
2019-03-26T01:46:32.941Z,6.80
2019-03-26T01:51:25.633Z,6.70
2019-03-26T01:56:18.407Z,6.70
2019-03-26T02:01:11.161Z,6.60
2019-03-26T02:06:03.525Z,6.60
2019-03-26T02:10:56.403Z,6.50
2019-03-26T02:15:48.951Z,6.50
2019-03-26T02:20:41.520Z,6.50
2019-03-26T02:25:34.300Z,6.50
2019-03-26T02:30:26.647Z,6.40
2019-03-26T02:35:19.516Z,6.30
2019-03-26T02:40:11.930Z,6.30
2019-03-26T02:45:05.927Z,6.20
2019-03-26T02:49:58.597Z,6.20
2019-03-26T02:54:51.046Z,6.00
2019-03-26T02:59:43.677Z,5.90
2019-03-26T03:04:36.357Z,5.90
2019-03-26T03:09:28.697Z,5.80
2019-03-26T03:14:21.406Z,5.70
2019-03-26T03:19:15.896Z,5.60
2019-03-26T03:24:07.874Z,5.50
2019-03-26T03:29:00.429Z,5.30
2019-03-26T03:33:52.910Z,5.20
2019-03-26T03:38:45.217Z,5.10
2019-03-26T03:43:37.921Z,4.90
2019-03-26T03:48:30.291Z,4.60
2019-03-26T03:53:23.738Z,4.50
2019-03-26T03:58:16.957Z,4.40
2019-03-26T04:03:10.224Z,4.40
2019-03-26T04:08:02.653Z,4.40
2019-03-26T04:12:55.215Z,4.30
2019-03-26T04:17:47.762Z,4.30
2019-03-26T04:22:40.317Z,4.10
2019-03-26T04:27:34.709Z,3.90
2019-03-26T04:32:27.110Z,3.60
2019-03-26T04:37:19.400Z,3.50
2019-03-26T04:42:11.998Z,3.30
2019-03-26T04:47:04.563Z,3.10
2019-03-26T04:51:57.305Z,3.00
2019-03-26T04:56:50.180Z,2.80
2019-03-26T05:01:42.773Z,2.70
2019-03-26T05:06:38.346Z,2.60
2019-03-26T05:11:29.664Z,2.50
2019-03-26T05:16:22.546Z,2.40
2019-03-26T05:21:15.242Z,2.20
2019-03-26T05:26:07.438Z,2.20
2019-03-26T05:30:59.847Z,2.10
2019-03-26T05:35:52.639Z,2.10
2019-03-26T05:40:44.862Z,2.00
2019-03-26T05:45:37.624Z,2.00
2019-03-26T05:50:30.189Z,1.80
2019-03-26T05:55:24.033Z,1.80
2019-03-26T06:00:18.553Z,1.90
2019-03-26T06:05:10.717Z,2.00
2019-03-26T06:10:04.263Z,2.20
2019-03-26T06:14:57.050Z,2.30
2019-03-26T06:19:49.373Z,2.50
2019-03-26T06:24:41.941Z,2.70
2019-03-26T06:29:34.431Z,2.90
2019-03-26T06:34:27.158Z,3.20
2019-03-26T06:39:19.481Z,3.60
2019-03-26T06:44:12.330Z,3.90
2019-03-26T06:49:04.886Z,4.20
2019-03-26T06:53:57.510Z,4.70
2019-03-26T06:58:49.788Z,5.20
2019-03-26T07:03:42.455Z,5.70
2019-03-26T07:08:35.091Z,6.20
2019-03-26T07:13:27.384Z,6.70
2019-03-26T07:18:19.889Z,7.30
2019-03-26T07:23:12.350Z,7.90
2019-03-26T07:28:05.213Z,8.80
2019-03-26T07:32:57.695Z,9.80
2019-03-26T07:37:49.914Z,11.00
2019-03-26T07:42:42.478Z,12.80
2019-03-26T07:47:34.886Z,14.20
2019-03-26T07:52:27.546Z,16.10
2019-03-26T07:57:19.948Z,17.00
2019-03-26T08:02:12.566Z,17.30
2019-03-26T08:07:05.014Z,17.40
2019-03-26T08:11:57.802Z,16.20
2019-03-26T08:16:50.179Z,15.20
2019-03-26T08:21:42.656Z,15.20
2019-03-26T08:26:35.356Z,13.80
2019-03-26T08:31:27.902Z,13.20
2019-03-26T08:36:21.193Z,12.50
2019-03-26T08:41:13.874Z,11.30
2019-03-26T08:46:06.430Z,11.40
2019-03-26T08:50:58.868Z,11.10
2019-03-26T08:55:51.241Z,10.70
2019-03-26T09:01:03.189Z,10.90
2019-03-26T09:05:55.721Z,11.30
2019-03-26T09:10:51.891Z,14.50
2019-03-26T09:15:42.013Z,18.20
2019-03-26T09:20:34.730Z,17.60
2019-03-26T09:25:27.090Z,15.80
2019-03-26T09:30:19.650Z,13.80
2019-03-26T09:35:12.993Z,14.50
2019-03-26T09:40:08.594Z,15.30
2019-03-26T09:45:00.874Z,15.60
2019-03-26T09:49:53.517Z,20.20
2019-03-26T09:54:46.074Z,20.90
2019-03-26T09:59:38.865Z,18.70
2019-03-26T10:04:31.390Z,17.50
2019-03-26T10:09:23.839Z,16.90
2019-03-26T10:14:16.658Z,17.50
2019-03-26T10:19:08.985Z,18.30
2019-03-26T10:24:01.704Z,16.30
2019-03-26T10:28:54.185Z,15.10
2019-03-26T10:33:46.958Z,14.00
2019-03-26T10:38:39.605Z,13.70
2019-03-26T10:43:31.897Z,13.50
2019-03-26T10:48:24.378Z,13.40
2019-03-26T10:53:16.757Z,14.90
2019-03-26T10:58:09.169Z,19.70
2019-03-26T11:03:01.689Z,21.60
2019-03-26T11:07:54.551Z,18.10
2019-03-26T11:12:46.865Z,15.90
2019-03-26T11:17:39.770Z,16.50
2019-03-26T11:22:32.440Z,17.70
2019-03-26T11:27:25.006Z,17.20
2019-03-26T11:32:16.975Z,18.40
2019-03-26T11:37:09.560Z,19.80
2019-03-26T11:42:02.198Z,22.10
2019-03-26T11:46:54.610Z,21.00
2019-03-26T11:51:47.214Z,18.50
2019-03-26T11:56:39.829Z,18.40
2019-03-26T12:01:32.042Z,20.50
2019-03-26T12:06:24.660Z,22.10
2019-03-26T12:11:17.109Z,22.50
2019-03-26T12:16:09.501Z,20.30
2019-03-26T12:21:02.391Z,19.20
2019-03-26T12:25:54.903Z,20.60
2019-03-26T12:30:47.348Z,22.40
2019-03-26T12:35:40.061Z,23.90
2019-03-26T12:40:32.661Z,23.60
2019-03-26T12:45:25.070Z,21.40
2019-03-26T12:50:17.897Z,23.00
2019-03-26T12:55:10.318Z,23.70
2019-03-26T13:00:03.209Z,24.60
2019-03-26T13:04:55.613Z,22.90
2019-03-26T13:09:48.007Z,23.20
2019-03-26T13:14:40.265Z,24.40
2019-03-26T13:19:32.614Z,25.50
2019-03-26T13:24:25.036Z,23.40
2019-03-26T13:29:17.641Z,20.90
2019-03-26T13:34:10.311Z,20.60
2019-03-26T13:39:02.774Z,20.30
2019-03-26T13:43:55.038Z,21.40
2019-03-26T13:48:47.854Z,22.00
2019-03-26T13:53:40.248Z,23.00
2019-03-26T13:58:32.558Z,21.80
2019-03-26T14:03:25.041Z,19.90
2019-03-26T14:08:17.549Z,20.30
2019-03-26T14:13:10.039Z,20.10
2019-03-26T14:18:02.477Z,19.10
2019-03-26T14:22:55.124Z,17.90
2019-03-26T14:27:47.818Z,17.20
2019-03-26T14:32:40.465Z,16.80
2019-03-26T14:37:33.181Z,16.60
2019-03-26T14:42:25.515Z,16.00
2019-03-26T14:47:18.174Z,15.50
2019-03-26T14:52:10.882Z,15.20
2019-03-26T14:57:03.881Z,14.90
2019-03-26T15:01:56.371Z,15.00
2019-03-26T15:06:48.977Z,15.40
2019-03-26T15:11:41.481Z,15.60
2019-03-26T15:16:34.088Z,15.10
2019-03-26T15:21:26.698Z,14.60
2019-03-26T15:26:18.924Z,14.10
2019-03-26T15:31:11.924Z,13.50
2019-03-26T15:36:04.977Z,12.80
2019-03-26T15:40:57.625Z,12.50
2019-03-26T15:45:50.430Z,12.20
2019-03-26T15:50:47.025Z,12.10
2019-03-26T15:55:40.216Z,12.10
2019-03-26T16:00:32.670Z,12.10
2019-03-26T16:05:25.142Z,12.00
2019-03-26T16:10:17.608Z,12.10
2019-03-26T16:15:10.502Z,12.20
2019-03-26T16:20:03.318Z,12.20
2019-03-26T16:24:55.955Z,12.10
2019-03-26T16:29:48.226Z,12.10
2019-03-26T16:34:40.913Z,11.80
2019-03-26T16:39:33.405Z,11.70
2019-03-26T16:44:28.123Z,11.50
2019-03-26T16:49:20.315Z,11.50
2019-03-26T16:54:12.833Z,11.40
2019-03-26T16:59:05.385Z,11.30
2019-03-26T17:03:58.198Z,11.40
2019-03-26T17:08:50.614Z,11.50
2019-03-26T17:13:43.547Z,11.50
2019-03-26T17:18:36.083Z,11.40
2019-03-26T17:23:28.438Z,11.40
2019-03-26T17:28:21.114Z,11.20
2019-03-26T17:33:13.813Z,11.00
2019-03-26T17:38:06.782Z,10.80
2019-03-26T17:42:59.002Z,10.60
2019-03-26T17:47:51.446Z,10.40
2019-03-26T17:52:43.872Z,10.20
2019-03-26T17:57:36.726Z,10.00
2019-03-26T18:02:30.947Z,9.80
2019-03-26T18:07:23.528Z,9.60
2019-03-26T18:12:29.912Z,9.50
2019-03-26T18:17:11.558Z,9.40
2019-03-26T18:22:04.869Z,9.20
2019-03-26T18:27:00.709Z,9.10
2019-03-26T18:31:53.337Z,9.00
2019-03-26T18:36:45.742Z,8.80
2019-03-26T18:41:38.405Z,8.70
2019-03-26T18:46:30.661Z,8.60
2019-03-26T18:51:22.973Z,8.40
2019-03-26T18:56:15.453Z,8.30
2019-03-26T19:01:08.212Z,8.20
2019-03-26T19:06:00.702Z,8.00
2019-03-26T19:10:53.322Z,7.80
2019-03-26T19:15:45.981Z,7.60
2019-03-26T19:20:38.341Z,7.40
2019-03-26T19:25:30.678Z,7.20
2019-03-26T19:30:23.337Z,7.00
2019-03-26T19:35:16.144Z,6.80
2019-03-26T19:40:08.808Z,6.60
2019-03-26T19:45:01.192Z,6.30
2019-03-26T19:49:53.959Z,6.20
2019-03-26T19:54:46.584Z,6.00
2019-03-26T19:59:38.881Z,5.80
2019-03-26T20:04:31.312Z,5.70
2019-03-26T20:09:24.269Z,5.60
2019-03-26T20:14:17.021Z,5.60
2019-03-26T20:19:09.405Z,5.50
2019-03-26T20:24:02.170Z,5.50
2019-03-26T20:28:56.157Z,5.40
2019-03-26T20:33:48.822Z,5.30
2019-03-26T20:38:41.126Z,5.30
2019-03-26T20:43:37.374Z,5.30
2019-03-26T20:48:27.937Z,5.20
2019-03-26T20:53:20.469Z,5.20
2019-03-26T20:58:12.661Z,5.30
2019-03-26T21:03:05.328Z,5.30
2019-03-26T21:07:57.814Z,5.30
2019-03-26T21:12:50.241Z,5.40
2019-03-26T21:17:43.141Z,5.40
2019-03-26T21:22:36.140Z,5.50
2019-03-26T21:27:28.479Z,5.60
2019-03-26T21:32:21.109Z,5.70
2019-03-26T21:37:13.943Z,5.70
2019-03-26T21:42:06.805Z,5.70
2019-03-26T21:46:58.707Z,5.70
2019-03-26T21:51:51.456Z,5.80
2019-03-26T21:56:44.140Z,5.90
2019-03-26T22:01:39.777Z,5.90
2019-03-26T22:06:32.186Z,5.90
2019-03-26T22:11:24.636Z,5.90
2019-03-26T22:16:16.929Z,5.90
2019-03-26T22:21:09.747Z,5.90
2019-03-26T22:26:02.041Z,6.00
2019-03-26T22:30:54.917Z,5.90
2019-03-26T22:35:47.641Z,6.00
2019-03-26T22:40:40.091Z,6.00
2019-03-26T22:45:32.254Z,6.10
2019-03-26T22:50:24.845Z,6.20
2019-03-26T22:55:17.633Z,6.10
2019-03-26T23:00:13.227Z,6.10
2019-03-26T23:05:07.642Z,6.20
2019-03-26T23:10:00.389Z,6.20
2019-03-26T23:14:52.620Z,6.10
2019-03-26T23:19:45.388Z,6.20
2019-03-26T23:24:37.965Z,6.20
2019-03-26T23:29:30.588Z,6.20
2019-03-26T23:34:23.057Z,6.10
2019-03-26T23:39:15.608Z,6.20
2019-03-26T23:44:07.741Z,6.10
2019-03-26T23:49:00.301Z,6.20
2019-03-26T23:53:52.778Z,6.20
2019-03-26T23:58:45.385Z,6.20
